createdAt,value
2023-05-25T17:35:26.020Z,26.85
2023-05-25T17:38:15.592Z,27.37
2023-05-25T17:40:50.079Z,27.84
2023-05-25T17:43:19.664Z,27.93
2023-05-25T17:45:55.363Z,27.72
2023-05-25T17:48:26.424Z,27.33
2023-05-25T17:50:55.425Z,27.04
2023-05-25T17:53:32.551Z,26.69
2023-05-25T17:56:09.519Z,26.32
2023-05-25T17:59:07.000Z,25.99
2023-05-25T18:01:39.068Z,25.59
2023-05-25T18:04:09.482Z,25.42
2023-05-25T18:06:38.836Z,25.22
2023-05-25T18:09:15.511Z,25.02
2023-05-25T18:12:14.640Z,24.84
2023-05-25T18:14:51.602Z,24.57
2023-05-25T18:17:25.475Z,24.47
2023-05-25T18:19:59.136Z,24.30
2023-05-25T18:22:32.574Z,24.16
2023-05-25T18:25:08.902Z,24.00
2023-05-25T18:27:39.442Z,23.86
2023-05-25T18:30:12.761Z,23.77
2023-05-25T18:32:46.002Z,23.62
2023-05-25T18:35:14.964Z,23.53
2023-05-25T18:37:59.120Z,23.41
2023-05-25T18:40:28.451Z,23.33
2023-05-25T18:42:58.283Z,23.25
2023-05-25T18:45:30.442Z,23.14
2023-05-25T18:48:07.781Z,23.06
2023-05-25T18:50:37.936Z,22.97
2023-05-25T18:53:10.344Z,22.86
2023-05-25T18:55:40.415Z,22.76
2023-05-25T18:58:09.726Z,22.66
2023-05-25T19:00:40.350Z,22.58
2023-05-25T19:03:09.233Z,22.52
2023-05-25T19:05:38.163Z,22.41
2023-05-25T19:08:09.682Z,22.30
2023-05-25T19:11:32.532Z,22.19
2023-05-25T19:14:42.521Z,21.93
2023-05-25T19:17:13.371Z,21.82
2023-05-25T19:19:42.662Z,21.80
2023-05-25T19:22:13.091Z,21.76
2023-05-25T19:24:44.289Z,21.71
2023-05-25T19:27:20.357Z,21.66
2023-05-25T19:29:48.960Z,21.58
2023-05-25T19:32:29.423Z,21.55
2023-05-25T19:34:58.424Z,21.48
2023-05-25T19:37:30.892Z,21.41
2023-05-25T19:39:59.911Z,21.37
2023-05-25T19:42:28.792Z,21.32
2023-05-25T19:45:02.487Z,21.26
2023-05-25T19:47:59.777Z,21.22
2023-05-25T19:50:38.325Z,21.07
2023-05-25T19:53:07.695Z,21.05
2023-05-25T19:55:41.246Z,21.03
2023-05-25T19:58:20.569Z,20.96
2023-05-25T20:00:49.746Z,20.91
2023-05-25T20:03:21.523Z,20.90
2023-05-25T20:05:51.890Z,20.85
2023-05-25T20:08:40.696Z,20.80
2023-05-25T20:11:37.856Z,20.66
2023-05-25T20:14:21.027Z,20.67
2023-05-25T20:17:00.788Z,20.64
2023-05-25T20:19:30.751Z,20.57
2023-05-25T20:22:05.832Z,20.55
2023-05-25T20:24:37.978Z,20.50
2023-05-25T20:27:07.530Z,20.46
2023-05-25T20:30:10.248Z,20.36
2023-05-25T20:32:43.814Z,20.32
2023-05-25T20:35:16.009Z,20.29
2023-05-25T20:37:44.770Z,20.25
2023-05-25T20:40:14.587Z,20.21
2023-05-25T20:42:47.003Z,20.17
2023-05-25T20:45:15.849Z,20.10
2023-05-25T20:47:47.150Z,20.07
2023-05-25T20:50:18.702Z,20.03
2023-05-25T20:52:47.755Z,20.03
2023-05-25T20:55:16.590Z,19.98
2023-05-25T20:57:44.942Z,19.96
2023-05-25T21:00:19.008Z,19.92
2023-05-25T21:02:48.230Z,19.84
2023-05-25T21:05:20.752Z,19.77
2023-05-25T21:07:49.752Z,19.73
2023-05-25T21:10:18.671Z,19.70
2023-05-25T21:12:47.456Z,19.65
2023-05-25T21:15:16.432Z,19.58
2023-05-25T21:17:45.424Z,19.51
2023-05-25T21:20:14.187Z,19.45
2023-05-25T21:22:44.524Z,19.40
2023-05-25T21:25:13.207Z,19.34
2023-05-25T21:27:42.158Z,19.26
2023-05-25T21:30:11.515Z,19.21
2023-05-25T21:32:40.129Z,19.17
2023-05-25T21:35:11.366Z,19.10
2023-05-25T21:37:40.619Z,19.05
2023-05-25T21:40:15.168Z,19.03
2023-05-25T21:42:44.111Z,18.98
2023-05-25T21:45:13.200Z,18.93
2023-05-25T21:47:41.974Z,18.87
2023-05-25T21:50:10.826Z,18.80
2023-05-25T21:52:41.969Z,18.70
2023-05-25T21:55:10.991Z,18.66
2023-05-25T21:57:39.582Z,18.62
2023-05-25T22:00:13.162Z,18.59
2023-05-25T22:02:41.794Z,18.54
2023-05-25T22:05:11.635Z,18.50
2023-05-25T22:07:40.167Z,18.44
2023-05-25T22:10:09.572Z,18.37
2023-05-25T22:12:38.345Z,18.31
2023-05-25T22:15:07.493Z,18.27
2023-05-25T22:17:37.426Z,18.18
2023-05-25T22:20:08.275Z,18.13
2023-05-25T22:22:40.278Z,18.05
2023-05-25T22:25:09.614Z,18.00
2023-05-25T22:27:39.174Z,17.94
2023-05-25T22:30:11.234Z,17.88
2023-05-25T22:32:42.133Z,17.80
2023-05-25T22:35:10.878Z,17.72
2023-05-25T22:37:39.715Z,17.64
2023-05-25T22:40:09.310Z,17.62
2023-05-25T22:42:38.489Z,17.58
2023-05-25T22:45:08.010Z,17.49
2023-05-25T22:47:40.598Z,17.40
2023-05-25T22:50:09.367Z,17.33
2023-05-25T22:52:41.303Z,17.32
2023-05-25T22:55:10.376Z,17.25
2023-05-25T22:57:41.859Z,17.21
2023-05-25T23:00:10.664Z,17.11
2023-05-25T23:02:39.279Z,17.02
2023-05-25T23:05:09.512Z,16.99
2023-05-25T23:07:39.756Z,16.90
2023-05-25T23:10:08.820Z,16.80
2023-05-25T23:12:37.672Z,16.77
2023-05-25T23:15:08.451Z,16.76
2023-05-25T23:17:37.251Z,16.73
2023-05-25T23:20:07.901Z,16.68
2023-05-25T23:22:37.011Z,16.66
2023-05-25T23:25:07.617Z,16.62
2023-05-25T23:27:38.886Z,16.54
2023-05-25T23:30:08.420Z,16.49
2023-05-25T23:32:38.972Z,16.42
2023-05-25T23:35:08.369Z,16.39
2023-05-25T23:37:37.418Z,16.36
2023-05-25T23:40:06.331Z,16.34
2023-05-25T23:42:39.306Z,16.30
2023-05-25T23:45:11.642Z,16.30
2023-05-25T23:47:40.812Z,16.35
2023-05-25T23:50:10.072Z,16.35
2023-05-25T23:52:38.894Z,16.36
2023-05-25T23:55:08.281Z,16.38
2023-05-25T23:57:37.150Z,16.37
